sensor_id;sensor_type;location;lat;lon;timestamp;temperature;humidity
78516;SHT31;67815;51.990;5.688;2023-03-14T00:01:29;14.2;68.2
78516;SHT31;67815;51.990;5.688;2023-03-14T00:03:58;14.2;69.1
78516;SHT31;67815;51.990;5.688;2023-03-14T00:06:28;14.2;69.3
78516;SHT31;67815;51.990;5.688;2023-03-14T00:08:59;14.2;69.7
78516;SHT31;67815;51.990;5.688;2023-03-14T00:11:28;14.1;69.8
78516;SHT31;67815;51.990;5.688;2023-03-14T00:13:59;14.1;69.8
78516;SHT31;67815;51.990;5.688;2023-03-14T00:16:30;14.0;70.3
78516;SHT31;67815;51.990;5.688;2023-03-14T00:19:01;14.0;70.8
78516;SHT31;67815;51.990;5.688;2023-03-14T00:21:30;14.0;70.5
78516;SHT31;67815;51.990;5.688;2023-03-14T00:24:02;13.9;70.5
78516;SHT31;67815;51.990;5.688;2023-03-14T00:26:31;13.9;70.7
78516;SHT31;67815;51.990;5.688;2023-03-14T00:29:01;13.8;70.7
78516;SHT31;67815;51.990;5.688;2023-03-14T00:31:31;13.8;70.6
78516;SHT31;67815;51.990;5.688;2023-03-14T00:34:03;13.8;70.5
78516;SHT31;67815;51.990;5.688;2023-03-14T00:36:32;13.8;70.7
78516;SHT31;67815;51.990;5.688;2023-03-14T00:39:02;13.7;70.7
78516;SHT31;67815;51.990;5.688;2023-03-14T00:41:32;13.7;70.5
78516;SHT31;67815;51.990;5.688;2023-03-14T00:44:02;13.7;70.8
78516;SHT31;67815;51.990;5.688;2023-03-14T00:46:31;13.7;70.6
78516;SHT31;67815;51.990;5.688;2023-03-14T00:49:01;13.7;70.5
78516;SHT31;67815;51.990;5.688;2023-03-14T00:51:31;13.7;70.5
78516;SHT31;67815;51.990;5.688;2023-03-14T00:54:01;13.6;68.5
78516;SHT31;67815;51.990;5.688;2023-03-14T00:56:33;13.6;68.7
78516;SHT31;67815;51.990;5.688;2023-03-14T00:59:02;13.6;68.5
78516;SHT31;67815;51.990;5.688;2023-03-14T01:01:32;13.6;67.4
78516;SHT31;67815;51.990;5.688;2023-03-14T01:04:02;13.5;66.4
78516;SHT31;67815;51.990;5.688;2023-03-14T01:06:31;13.5;65.9
78516;SHT31;67815;51.990;5.688;2023-03-14T01:09:01;13.5;66.3
78516;SHT31;67815;51.990;5.688;2023-03-14T01:11:34;13.4;65.1
78516;SHT31;67815;51.990;5.688;2023-03-14T01:14:05;13.4;66.0
78516;SHT31;67815;51.990;5.688;2023-03-14T01:16:36;13.4;66.3
78516;SHT31;67815;51.990;5.688;2023-03-14T01:19:05;13.4;67.0
78516;SHT31;67815;51.990;5.688;2023-03-14T01:21:35;13.4;66.8
78516;SHT31;67815;51.990;5.688;2023-03-14T01:24:06;13.3;66.8
78516;SHT31;67815;51.990;5.688;2023-03-14T01:26:36;13.3;66.9
78516;SHT31;67815;51.990;5.688;2023-03-14T01:29:05;13.3;67.7
78516;SHT31;67815;51.990;5.688;2023-03-14T01:31:37;13.3;67.7
78516;SHT31;67815;51.990;5.688;2023-03-14T01:34:09;13.3;68.3
78516;SHT31;67815;51.990;5.688;2023-03-14T01:36:39;13.3;68.4
78516;SHT31;67815;51.990;5.688;2023-03-14T01:39:08;13.2;67.8
78516;SHT31;67815;51.990;5.688;2023-03-14T01:41:39;13.2;67.5
78516;SHT31;67815;51.990;5.688;2023-03-14T01:44:12;13.2;67.3
78516;SHT31;67815;51.990;5.688;2023-03-14T01:46:43;13.2;68.3
78516;SHT31;67815;51.990;5.688;2023-03-14T01:49:21;13.1;67.1
78516;SHT31;67815;51.990;5.688;2023-03-14T01:51:56;13.1;67.7
78516;SHT31;67815;51.990;5.688;2023-03-14T01:54:31;13.1;68.0
78516;SHT31;67815;51.990;5.688;2023-03-14T01:57:08;13.0;68.0
78516;SHT31;67815;51.990;5.688;2023-03-14T01:59:45;13.0;68.4
78516;SHT31;67815;51.990;5.688;2023-03-14T02:02:16;13.0;69.1
78516;SHT31;67815;51.990;5.688;2023-03-14T02:04:46;12.9;69.7
78516;SHT31;67815;51.990;5.688;2023-03-14T02:07:20;12.9;70.2
78516;SHT31;67815;51.990;5.688;2023-03-14T02:09:53;12.9;70.3
78516;SHT31;67815;51.990;5.688;2023-03-14T02:12:24;12.9;70.3
78516;SHT31;67815;51.990;5.688;2023-03-14T02:14:54;12.8;70.5
78516;SHT31;67815;51.990;5.688;2023-03-14T02:17:24;12.8;70.8
78516;SHT31;67815;51.990;5.688;2023-03-14T02:20:38;12.8;70.8
78516;SHT31;67815;51.990;5.688;2023-03-14T02:23:10;12.8;71.0
78516;SHT31;67815;51.990;5.688;2023-03-14T02:25:47;12.8;71.2
78516;SHT31;67815;51.990;5.688;2023-03-14T02:28:19;12.8;71.3
78516;SHT31;67815;51.990;5.688;2023-03-14T02:30:49;12.8;71.2
78516;SHT31;67815;51.990;5.688;2023-03-14T02:33:20;12.8;71.5
78516;SHT31;67815;51.990;5.688;2023-03-14T02:35:55;12.7;71.6
78516;SHT31;67815;51.990;5.688;2023-03-14T02:38:31;12.7;71.6
78516;SHT31;67815;51.990;5.688;2023-03-14T02:41:03;12.7;71.7
78516;SHT31;67815;51.990;5.688;2023-03-14T02:43:33;12.7;71.5
78516;SHT31;67815;51.990;5.688;2023-03-14T02:46:05;12.7;71.7
78516;SHT31;67815;51.990;5.688;2023-03-14T02:48:41;12.7;71.8
78516;SHT31;67815;51.990;5.688;2023-03-14T02:51:14;12.7;71.9
78516;SHT31;67815;51.990;5.688;2023-03-14T02:53:46;12.7;71.9
78516;SHT31;67815;51.990;5.688;2023-03-14T02:56:16;12.7;71.8
78516;SHT31;67815;51.990;5.688;2023-03-14T02:58:45;12.7;71.9
78516;SHT31;67815;51.990;5.688;2023-03-14T03:01:15;12.7;71.7
78516;SHT31;67815;51.990;5.688;2023-03-14T03:03:45;12.7;71.6
78516;SHT31;67815;51.990;5.688;2023-03-14T03:06:15;12.7;71.4
78516;SHT31;67815;51.990;5.688;2023-03-14T03:08:47;12.7;71.3
78516;SHT31;67815;51.990;5.688;2023-03-14T03:11:16;12.7;71.4
78516;SHT31;67815;51.990;5.688;2023-03-14T03:13:46;12.6;71.2
78516;SHT31;67815;51.990;5.688;2023-03-14T03:16:16;12.6;71.4
78516;SHT31;67815;51.990;5.688;2023-03-14T03:18:45;12.6;71.5
78516;SHT31;67815;51.990;5.688;2023-03-14T03:21:15;12.6;71.6
78516;SHT31;67815;51.990;5.688;2023-03-14T03:23:48;12.6;71.6
78516;SHT31;67815;51.990;5.688;2023-03-14T03:26:17;12.5;71.3
78516;SHT31;67815;51.990;5.688;2023-03-14T03:28:50;12.5;71.7
78516;SHT31;67815;51.990;5.688;2023-03-14T03:31:22;12.5;71.7
78516;SHT31;67815;51.990;5.688;2023-03-14T03:33:51;12.5;71.4
78516;SHT31;67815;51.990;5.688;2023-03-14T03:36:23;12.5;71.6
78516;SHT31;67815;51.990;5.688;2023-03-14T03:38:56;12.4;71.7
78516;SHT31;67815;51.990;5.688;2023-03-14T03:41:26;12.4;71.9
78516;SHT31;67815;51.990;5.688;2023-03-14T03:43:56;12.4;71.8
78516;SHT31;67815;51.990;5.688;2023-03-14T03:46:26;12.4;72.0
78516;SHT31;67815;51.990;5.688;2023-03-14T03:48:57;12.4;72.1
78516;SHT31;67815;51.990;5.688;2023-03-14T03:51:27;12.4;72.3
78516;SHT31;67815;51.990;5.688;2023-03-14T03:53:57;12.4;72.1
78516;SHT31;67815;51.990;5.688;2023-03-14T03:56:27;12.4;71.9
78516;SHT31;67815;51.990;5.688;2023-03-14T03:59:01;12.4;71.9
78516;SHT31;67815;51.990;5.688;2023-03-14T04:01:30;12.4;71.9
78516;SHT31;67815;51.990;5.688;2023-03-14T04:04:00;12.4;71.6
78516;SHT31;67815;51.990;5.688;2023-03-14T04:06:31;12.3;71.4
78516;SHT31;67815;51.990;5.688;2023-03-14T04:09:01;12.3;71.9
78516;SHT31;67815;51.990;5.688;2023-03-14T04:11:31;12.3;71.8
78516;SHT31;67815;51.990;5.688;2023-03-14T04:14:00;12.3;71.7
78516;SHT31;67815;51.990;5.688;2023-03-14T04:16:30;12.2;71.9
78516;SHT31;67815;51.990;5.688;2023-03-14T04:19:01;12.2;72.1
78516;SHT31;67815;51.990;5.688;2023-03-14T04:21:31;12.2;72.3
78516;SHT31;67815;51.990;5.688;2023-03-14T04:24:01;12.2;72.1
78516;SHT31;67815;51.990;5.688;2023-03-14T04:26:31;12.2;71.9
78516;SHT31;67815;51.990;5.688;2023-03-14T04:29:01;12.2;72.0
78516;SHT31;67815;51.990;5.688;2023-03-14T04:31:31;12.2;72.3
78516;SHT31;67815;51.990;5.688;2023-03-14T04:34:00;12.2;72.3
78516;SHT31;67815;51.990;5.688;2023-03-14T04:36:30;12.1;72.0
78516;SHT31;67815;51.990;5.688;2023-03-14T04:38:59;12.1;72.6
78516;SHT31;67815;51.990;5.688;2023-03-14T04:41:29;12.1;72.2
78516;SHT31;67815;51.990;5.688;2023-03-14T04:43:59;12.1;72.7
78516;SHT31;67815;51.990;5.688;2023-03-14T04:46:29;12.1;72.9
78516;SHT31;67815;51.990;5.688;2023-03-14T04:48:58;12.1;72.7
78516;SHT31;67815;51.990;5.688;2023-03-14T04:51:28;12.1;72.7
78516;SHT31;67815;51.990;5.688;2023-03-14T04:53:58;12.1;72.1
78516;SHT31;67815;51.990;5.688;2023-03-14T04:56:27;12.1;72.2
78516;SHT31;67815;51.990;5.688;2023-03-14T04:58:57;12.1;72.6
78516;SHT31;67815;51.990;5.688;2023-03-14T05:01:26;12.2;72.5
78516;SHT31;67815;51.990;5.688;2023-03-14T05:03:58;12.2;71.8
78516;SHT31;67815;51.990;5.688;2023-03-14T05:06:28;12.2;71.6
78516;SHT31;67815;51.990;5.688;2023-03-14T05:08:58;12.2;71.8
78516;SHT31;67815;51.990;5.688;2023-03-14T05:11:28;12.2;71.9
78516;SHT31;67815;51.990;5.688;2023-03-14T05:13:58;12.2;72.5
78516;SHT31;67815;51.990;5.688;2023-03-14T05:16:27;12.2;72.2
78516;SHT31;67815;51.990;5.688;2023-03-14T05:18:57;12.2;72.5
78516;SHT31;67815;51.990;5.688;2023-03-14T05:21:29;12.2;72.4
78516;SHT31;67815;51.990;5.688;2023-03-14T05:23:58;12.2;72.3
78516;SHT31;67815;51.990;5.688;2023-03-14T05:26:28;12.2;71.8
78516;SHT31;67815;51.990;5.688;2023-03-14T05:28:58;12.2;72.1
78516;SHT31;67815;51.990;5.688;2023-03-14T05:31:27;12.2;72.2
78516;SHT31;67815;51.990;5.688;2023-03-14T05:33:58;12.2;71.4
78516;SHT31;67815;51.990;5.688;2023-03-14T05:36:27;12.2;71.9
78516;SHT31;67815;51.990;5.688;2023-03-14T05:38:59;12.2;72.3
78516;SHT31;67815;51.990;5.688;2023-03-14T05:41:28;12.2;72.2
78516;SHT31;67815;51.990;5.688;2023-03-14T05:43:58;12.2;72.4
78516;SHT31;67815;51.990;5.688;2023-03-14T05:46:28;12.2;72.8
78516;SHT31;67815;51.990;5.688;2023-03-14T05:48:58;12.2;72.9
78516;SHT31;67815;51.990;5.688;2023-03-14T05:51:28;12.2;72.9
78516;SHT31;67815;51.990;5.688;2023-03-14T05:53:58;12.2;73.3
78516;SHT31;67815;51.990;5.688;2023-03-14T05:56:27;12.2;73.2
78516;SHT31;67815;51.990;5.688;2023-03-14T05:58:57;12.2;73.4
78516;SHT31;67815;51.990;5.688;2023-03-14T06:01:30;12.2;73.6
78516;SHT31;67815;51.990;5.688;2023-03-14T06:03:59;12.2;73.7
78516;SHT31;67815;51.990;5.688;2023-03-14T06:06:29;12.2;73.7
78516;SHT31;67815;51.990;5.688;2023-03-14T06:08:59;12.2;73.7
78516;SHT31;67815;51.990;5.688;2023-03-14T06:11:29;12.2;73.7
78516;SHT31;67815;51.990;5.688;2023-03-14T06:13:59;12.2;73.7
78516;SHT31;67815;51.990;5.688;2023-03-14T06:16:28;12.2;73.8
78516;SHT31;67815;51.990;5.688;2023-03-14T06:18:59;12.2;73.9
78516;SHT31;67815;51.990;5.688;2023-03-14T06:21:29;12.2;73.9
78516;SHT31;67815;51.990;5.688;2023-03-14T06:23:58;12.2;74.0
78516;SHT31;67815;51.990;5.688;2023-03-14T06:26:28;12.2;74.1
78516;SHT31;67815;51.990;5.688;2023-03-14T06:28:58;12.2;74.3
78516;SHT31;67815;51.990;5.688;2023-03-14T06:31:31;12.2;74.4
78516;SHT31;67815;51.990;5.688;2023-03-14T06:34:01;12.2;74.5
78516;SHT31;67815;51.990;5.688;2023-03-14T06:36:32;12.2;74.6
78516;SHT31;67815;51.990;5.688;2023-03-14T06:39:01;12.1;74.7
78516;SHT31;67815;51.990;5.688;2023-03-14T06:41:31;12.1;74.9
78516;SHT31;67815;51.990;5.688;2023-03-14T06:44:01;12.1;75.1
78516;SHT31;67815;51.990;5.688;2023-03-14T06:46:30;12.1;75.3
78516;SHT31;67815;51.990;5.688;2023-03-14T06:49:00;12.1;75.4
78516;SHT31;67815;51.990;5.688;2023-03-14T06:51:30;12.1;75.4
78516;SHT31;67815;51.990;5.688;2023-03-14T06:54:00;12.1;75.4
78516;SHT31;67815;51.990;5.688;2023-03-14T06:56:29;12.1;75.3
78516;SHT31;67815;51.990;5.688;2023-03-14T06:59:01;12.1;75.5
78516;SHT31;67815;51.990;5.688;2023-03-14T07:01:32;12.1;75.7
78516;SHT31;67815;51.990;5.688;2023-03-14T07:04:03;12.2;75.9
78516;SHT31;67815;51.990;5.688;2023-03-14T07:06:33;12.2;75.8
78516;SHT31;67815;51.990;5.688;2023-03-14T07:09:03;12.2;75.6
78516;SHT31;67815;51.990;5.688;2023-03-14T07:11:33;12.2;75.6
78516;SHT31;67815;51.990;5.688;2023-03-14T07:14:04;12.2;72.1
78516;SHT31;67815;51.990;5.688;2023-03-14T07:16:34;12.1;72.7
78516;SHT31;67815;51.990;5.688;2023-03-14T07:19:04;12.1;71.6
78516;SHT31;67815;51.990;5.688;2023-03-14T07:21:34;12.0;69.8
78516;SHT31;67815;51.990;5.688;2023-03-14T07:24:06;12.0;70.0
78516;SHT31;67815;51.990;5.688;2023-03-14T07:26:39;11.9;69.1
78516;SHT31;67815;51.990;5.688;2023-03-14T07:29:09;11.8;69.5
78516;SHT31;67815;51.990;5.688;2023-03-14T07:31:38;11.8;69.0
78516;SHT31;67815;51.990;5.688;2023-03-14T07:34:08;11.7;69.5
78516;SHT31;67815;51.990;5.688;2023-03-14T07:36:37;11.7;69.3
78516;SHT31;67815;51.990;5.688;2023-03-14T07:39:07;11.6;69.5
78516;SHT31;67815;51.990;5.688;2023-03-14T07:41:38;11.6;69.9
78516;SHT31;67815;51.990;5.688;2023-03-14T07:44:08;11.6;70.2
78516;SHT31;67815;51.990;5.688;2023-03-14T07:46:38;11.5;70.4
78516;SHT31;67815;51.990;5.688;2023-03-14T07:49:07;11.5;70.8
78516;SHT31;67815;51.990;5.688;2023-03-14T07:51:37;11.5;70.9
78516;SHT31;67815;51.990;5.688;2023-03-14T07:54:06;11.5;71.0
78516;SHT31;67815;51.990;5.688;2023-03-14T07:56:36;11.5;70.6
78516;SHT31;67815;51.990;5.688;2023-03-14T07:59:06;11.4;70.9
78516;SHT31;67815;51.990;5.688;2023-03-14T08:01:38;11.4;70.7
78516;SHT31;67815;51.990;5.688;2023-03-14T08:04:08;11.4;70.9
78516;SHT31;67815;51.990;5.688;2023-03-14T08:06:37;11.4;71.5
78516;SHT31;67815;51.990;5.688;2023-03-14T08:09:07;11.3;71.8
78516;SHT31;67815;51.990;5.688;2023-03-14T08:11:37;11.3;71.4
78516;SHT31;67815;51.990;5.688;2023-03-14T08:14:07;11.3;70.0
78516;SHT31;67815;51.990;5.688;2023-03-14T08:16:38;11.3;68.9
78516;SHT31;67815;51.990;5.688;2023-03-14T08:19:08;11.2;69.8
78516;SHT31;67815;51.990;5.688;2023-03-14T08:21:38;11.2;70.0
78516;SHT31;67815;51.990;5.688;2023-03-14T08:24:08;11.1;69.1
78516;SHT31;67815;51.990;5.688;2023-03-14T08:26:40;11.1;69.7
78516;SHT31;67815;51.990;5.688;2023-03-14T08:29:10;11.0;69.0
78516;SHT31;67815;51.990;5.688;2023-03-14T08:31:40;11.0;68.9
78516;SHT31;67815;51.990;5.688;2023-03-14T08:34:10;10.9;68.1
78516;SHT31;67815;51.990;5.688;2023-03-14T08:36:39;10.8;68.2
78516;SHT31;67815;51.990;5.688;2023-03-14T08:39:09;10.8;67.9
78516;SHT31;67815;51.990;5.688;2023-03-14T08:41:38;10.7;65.7
78516;SHT31;67815;51.990;5.688;2023-03-14T08:44:11;10.6;66.3
78516;SHT31;67815;51.990;5.688;2023-03-14T08:46:41;10.4;64.7
78516;SHT31;67815;51.990;5.688;2023-03-14T08:49:11;10.3;66.6
78516;SHT31;67815;51.990;5.688;2023-03-14T08:51:42;10.3;66.6
78516;SHT31;67815;51.990;5.688;2023-03-14T08:54:12;10.2;67.5
78516;SHT31;67815;51.990;5.688;2023-03-14T08:56:41;10.2;67.7
78516;SHT31;67815;51.990;5.688;2023-03-14T08:59:11;10.1;66.7
78516;SHT31;67815;51.990;5.688;2023-03-14T09:01:40;10.1;68.0
78516;SHT31;67815;51.990;5.688;2023-03-14T09:04:10;10.0;68.2
78516;SHT31;67815;51.990;5.688;2023-03-14T09:06:40;10.0;67.3
78516;SHT31;67815;51.990;5.688;2023-03-14T09:09:10;10.0;65.7
78516;SHT31;67815;51.990;5.688;2023-03-14T09:11:41;9.9;66.5
78516;SHT31;67815;51.990;5.688;2023-03-14T09:14:10;9.8;66.1
78516;SHT31;67815;51.990;5.688;2023-03-14T09:16:43;9.8;67.1
78516;SHT31;67815;51.990;5.688;2023-03-14T09:19:12;9.7;67.3
78516;SHT31;67815;51.990;5.688;2023-03-14T09:21:42;9.7;66.3
78516;SHT31;67815;51.990;5.688;2023-03-14T09:24:11;9.7;66.5
78516;SHT31;67815;51.990;5.688;2023-03-14T09:26:41;9.6;66.4
78516;SHT31;67815;51.990;5.688;2023-03-14T09:29:11;9.6;65.8
78516;SHT31;67815;51.990;5.688;2023-03-14T09:31:41;9.6;64.4
78516;SHT31;67815;51.990;5.688;2023-03-14T09:34:10;9.5;64.3
78516;SHT31;67815;51.990;5.688;2023-03-14T09:36:40;9.5;65.0
78516;SHT31;67815;51.990;5.688;2023-03-14T09:39:11;9.5;65.8
78516;SHT31;67815;51.990;5.688;2023-03-14T09:41:44;9.5;65.2
78516;SHT31;67815;51.990;5.688;2023-03-14T09:44:19;9.5;63.9
78516;SHT31;67815;51.990;5.688;2023-03-14T09:46:53;9.5;62.6
78516;SHT31;67815;51.990;5.688;2023-03-14T09:49:29;9.5;61.7
78516;SHT31;67815;51.990;5.688;2023-03-14T09:52:03;9.4;63.0
78516;SHT31;67815;51.990;5.688;2023-03-14T09:54:40;9.4;63.5
78516;SHT31;67815;51.990;5.688;2023-03-14T09:57:14;9.4;63.6
78516;SHT31;67815;51.990;5.688;2023-03-14T09:59:47;9.4;64.3
78516;SHT31;67815;51.990;5.688;2023-03-14T10:02:21;9.4;63.3
78516;SHT31;67815;51.990;5.688;2023-03-14T10:04:53;9.4;63.2
78516;SHT31;67815;51.990;5.688;2023-03-14T10:07:28;9.5;61.5
78516;SHT31;67815;51.990;5.688;2023-03-14T10:09:58;9.5;59.8
78516;SHT31;67815;51.990;5.688;2023-03-14T10:12:37;9.5;60.3
78516;SHT31;67815;51.990;5.688;2023-03-14T10:15:12;9.5;61.5
78516;SHT31;67815;51.990;5.688;2023-03-14T10:17:48;9.5;61.7
78516;SHT31;67815;51.990;5.688;2023-03-14T10:20:33;9.5;61.6
78516;SHT31;67815;51.990;5.688;2023-03-14T10:23:05;9.6;60.9
78516;SHT31;67815;51.990;5.688;2023-03-14T10:25:37;9.6;59.9
78516;SHT31;67815;51.990;5.688;2023-03-14T10:28:22;9.6;61.2
78516;SHT31;67815;51.990;5.688;2023-03-14T10:30:54;9.6;61.7
78516;SHT31;67815;51.990;5.688;2023-03-14T10:33:26;9.6;60.2
78516;SHT31;67815;51.990;5.688;2023-03-14T10:35:58;9.7;60.7
78516;SHT31;67815;51.990;5.688;2023-03-14T10:38:30;9.7;60.0
78516;SHT31;67815;51.990;5.688;2023-03-14T10:41:01;9.7;59.9
78516;SHT31;67815;51.990;5.688;2023-03-14T10:43:35;9.8;60.2
78516;SHT31;67815;51.990;5.688;2023-03-14T10:46:09;9.8;59.5
78516;SHT31;67815;51.990;5.688;2023-03-14T10:48:41;9.8;61.4
78516;SHT31;67815;51.990;5.688;2023-03-14T10:51:24;9.8;59.8
78516;SHT31;67815;51.990;5.688;2023-03-14T10:53:59;9.8;60.4
78516;SHT31;67815;51.990;5.688;2023-03-14T10:56:36;9.7;59.8
78516;SHT31;67815;51.990;5.688;2023-03-14T10:59:13;9.7;61.1
78516;SHT31;67815;51.990;5.688;2023-03-14T11:01:48;9.7;59.1
78516;SHT31;67815;51.990;5.688;2023-03-14T11:04:38;9.6;59.0
78516;SHT31;67815;51.990;5.688;2023-03-14T11:07:16;9.6;61.3
78516;SHT31;67815;51.990;5.688;2023-03-14T11:09:54;9.6;60.2
78516;SHT31;67815;51.990;5.688;2023-03-14T11:12:41;9.6;61.6
78516;SHT31;67815;51.990;5.688;2023-03-14T11:15:17;9.6;62.6
78516;SHT31;67815;51.990;5.688;2023-03-14T11:17:55;9.7;58.8
78516;SHT31;67815;51.990;5.688;2023-03-14T11:20:34;9.7;56.8
78516;SHT31;67815;51.990;5.688;2023-03-14T11:23:14;9.7;58.8
78516;SHT31;67815;51.990;5.688;2023-03-14T11:25:56;9.7;56.1
78516;SHT31;67815;51.990;5.688;2023-03-14T11:28:34;9.6;57.6
78516;SHT31;67815;51.990;5.688;2023-03-14T11:31:14;9.6;58.2
78516;SHT31;67815;51.990;5.688;2023-03-14T11:33:56;9.6;58.6
78516;SHT31;67815;51.990;5.688;2023-03-14T11:36:31;9.7;55.4
78516;SHT31;67815;51.990;5.688;2023-03-14T11:39:08;9.7;57.3
78516;SHT31;67815;51.990;5.688;2023-03-14T11:41:43;9.8;54.1
78516;SHT31;67815;51.990;5.688;2023-03-14T11:44:18;9.8;53.2
78516;SHT31;67815;51.990;5.688;2023-03-14T11:46:53;9.8;51.2
78516;SHT31;67815;51.990;5.688;2023-03-14T11:49:31;9.8;51.1
78516;SHT31;67815;51.990;5.688;2023-03-14T11:52:12;9.8;50.1
78516;SHT31;67815;51.990;5.688;2023-03-14T11:54:49;9.8;50.5
78516;SHT31;67815;51.990;5.688;2023-03-14T11:57:24;9.8;51.4
78516;SHT31;67815;51.990;5.688;2023-03-14T11:59:59;9.8;48.3
78516;SHT31;67815;51.990;5.688;2023-03-14T12:02:43;9.8;50.3
78516;SHT31;67815;51.990;5.688;2023-03-14T12:05:37;9.8;49.2
78516;SHT31;67815;51.990;5.688;2023-03-14T12:08:53;9.8;50.5
78516;SHT31;67815;51.990;5.688;2023-03-14T12:11:31;9.8;48.5
78516;SHT31;67815;51.990;5.688;2023-03-14T12:14:03;9.9;49.2
78516;SHT31;67815;51.990;5.688;2023-03-14T12:16:39;9.9;48.5
78516;SHT31;67815;51.990;5.688;2023-03-14T12:19:38;9.9;47.9
78516;SHT31;67815;51.990;5.688;2023-03-14T12:22:26;9.9;48.0
78516;SHT31;67815;51.990;5.688;2023-03-14T12:25:03;10.0;47.7
78516;SHT31;67815;51.990;5.688;2023-03-14T12:27:44;10.0;46.9
78516;SHT31;67815;51.990;5.688;2023-03-14T12:30:29;10.0;47.0
78516;SHT31;67815;51.990;5.688;2023-03-14T12:35:37;10.0;43.7
78516;SHT31;67815;51.990;5.688;2023-03-14T12:38:11;10.0;44.8
78516;SHT31;67815;51.990;5.688;2023-03-14T12:40:52;10.0;43.5
78516;SHT31;67815;51.990;5.688;2023-03-14T12:43:28;10.1;42.3
78516;SHT31;67815;51.990;5.688;2023-03-14T12:46:18;10.1;42.8
78516;SHT31;67815;51.990;5.688;2023-03-14T12:48:53;10.1;43.7
78516;SHT31;67815;51.990;5.688;2023-03-14T12:51:36;10.1;44.2
78516;SHT31;67815;51.990;5.688;2023-03-14T12:55:12;10.2;43.7
78516;SHT31;67815;51.990;5.688;2023-03-14T12:57:52;10.2;41.2
78516;SHT31;67815;51.990;5.688;2023-03-14T13:00:31;10.2;41.0
78516;SHT31;67815;51.990;5.688;2023-03-14T13:03:20;10.2;41.7
78516;SHT31;67815;51.990;5.688;2023-03-14T13:05:56;10.3;41.4
78516;SHT31;67815;51.990;5.688;2023-03-14T13:08:36;10.3;41.6
78516;SHT31;67815;51.990;5.688;2023-03-14T13:11:10;10.3;41.1
78516;SHT31;67815;51.990;5.688;2023-03-14T13:13:47;10.3;40.4
78516;SHT31;67815;51.990;5.688;2023-03-14T13:16:19;10.3;40.5
78516;SHT31;67815;51.990;5.688;2023-03-14T13:18:58;10.3;39.8
78516;SHT31;67815;51.990;5.688;2023-03-14T13:21:27;10.3;40.4
78516;SHT31;67815;51.990;5.688;2023-03-14T13:23:59;10.2;37.5
78516;SHT31;67815;51.990;5.688;2023-03-14T13:26:35;10.2;38.5
78516;SHT31;67815;51.990;5.688;2023-03-14T13:29:17;10.2;39.8
78516;SHT31;67815;51.990;5.688;2023-03-14T13:31:50;10.2;40.7
78516;SHT31;67815;51.990;5.688;2023-03-14T13:34:26;10.2;41.1
78516;SHT31;67815;51.990;5.688;2023-03-14T13:36:59;10.2;38.4
78516;SHT31;67815;51.990;5.688;2023-03-14T13:39:29;10.2;38.6
78516;SHT31;67815;51.990;5.688;2023-03-14T13:42:01;10.2;39.3
78516;SHT31;67815;51.990;5.688;2023-03-14T13:44:35;10.2;38.0
78516;SHT31;67815;51.990;5.688;2023-03-14T13:47:13;10.2;39.5
78516;SHT31;67815;51.990;5.688;2023-03-14T13:49:44;10.2;39.6
78516;SHT31;67815;51.990;5.688;2023-03-14T13:52:28;10.2;39.2
78516;SHT31;67815;51.990;5.688;2023-03-14T13:55:00;10.2;39.6
78516;SHT31;67815;51.990;5.688;2023-03-14T13:57:42;10.2;39.1
78516;SHT31;67815;51.990;5.688;2023-03-14T14:00:19;10.2;38.3
78516;SHT31;67815;51.990;5.688;2023-03-14T14:02:51;10.2;39.2
78516;SHT31;67815;51.990;5.688;2023-03-14T14:05:22;10.2;38.2
78516;SHT31;67815;51.990;5.688;2023-03-14T14:07:52;10.2;38.9
78516;SHT31;67815;51.990;5.688;2023-03-14T14:10:25;10.2;38.6
78516;SHT31;67815;51.990;5.688;2023-03-14T14:13:00;10.3;38.1
78516;SHT31;67815;51.990;5.688;2023-03-14T14:15:39;10.3;38.3
78516;SHT31;67815;51.990;5.688;2023-03-14T14:18:14;10.3;38.4
78516;SHT31;67815;51.990;5.688;2023-03-14T14:20:47;10.3;38.2
78516;SHT31;67815;51.990;5.688;2023-03-14T14:23:20;10.3;38.7
78516;SHT31;67815;51.990;5.688;2023-03-14T14:25:54;10.3;37.9
78516;SHT31;67815;51.990;5.688;2023-03-14T14:28:27;10.2;39.6
78516;SHT31;67815;51.990;5.688;2023-03-14T14:31:03;10.2;40.8
78516;SHT31;67815;51.990;5.688;2023-03-14T14:33:43;10.2;39.9
78516;SHT31;67815;51.990;5.688;2023-03-14T14:36:19;10.2;39.4
78516;SHT31;67815;51.990;5.688;2023-03-14T14:38:52;10.2;39.3
78516;SHT31;67815;51.990;5.688;2023-03-14T14:41:26;10.2;40.0
78516;SHT31;67815;51.990;5.688;2023-03-14T14:43:57;10.2;39.7
78516;SHT31;67815;51.990;5.688;2023-03-14T14:46:30;10.2;38.8
78516;SHT31;67815;51.990;5.688;2023-03-14T14:49:08;10.1;40.1
78516;SHT31;67815;51.990;5.688;2023-03-14T14:51:44;10.1;39.2
78516;SHT31;67815;51.990;5.688;2023-03-14T14:54:16;10.1;39.4
78516;SHT31;67815;51.990;5.688;2023-03-14T14:56:52;10.0;39.9
78516;SHT31;67815;51.990;5.688;2023-03-14T14:59:24;10.0;39.6
78516;SHT31;67815;51.990;5.688;2023-03-14T15:02:01;10.0;38.7
78516;SHT31;67815;51.990;5.688;2023-03-14T15:04:32;10.0;38.9
78516;SHT31;67815;51.990;5.688;2023-03-14T15:07:02;9.9;38.6
78516;SHT31;67815;51.990;5.688;2023-03-14T15:09:32;9.9;39.0
78516;SHT31;67815;51.990;5.688;2023-03-14T15:12:02;9.9;41.3
78516;SHT31;67815;51.990;5.688;2023-03-14T15:14:31;9.9;40.6
78516;SHT31;67815;51.990;5.688;2023-03-14T15:17:01;9.8;40.1
78516;SHT31;67815;51.990;5.688;2023-03-14T15:19:31;9.8;41.0
78516;SHT31;67815;51.990;5.688;2023-03-14T15:22:02;9.8;40.2
78516;SHT31;67815;51.990;5.688;2023-03-14T15:24:33;9.8;39.8
78516;SHT31;67815;51.990;5.688;2023-03-14T15:27:03;9.8;39.9
78516;SHT31;67815;51.990;5.688;2023-03-14T15:29:32;9.8;41.4
78516;SHT31;67815;51.990;5.688;2023-03-14T15:32:03;9.8;40.7
78516;SHT31;67815;51.990;5.688;2023-03-14T15:34:32;9.8;39.9
78516;SHT31;67815;51.990;5.688;2023-03-14T15:37:02;9.8;40.6
78516;SHT31;67815;51.990;5.688;2023-03-14T15:39:35;9.8;40.9
78516;SHT31;67815;51.990;5.688;2023-03-14T15:42:06;9.8;41.4
78516;SHT31;67815;51.990;5.688;2023-03-14T15:44:36;9.8;41.2
78516;SHT31;67815;51.990;5.688;2023-03-14T15:47:08;9.8;41.4
78516;SHT31;67815;51.990;5.688;2023-03-14T15:49:41;9.8;41.3
78516;SHT31;67815;51.990;5.688;2023-03-14T15:52:12;9.8;41.2
78516;SHT31;67815;51.990;5.688;2023-03-14T15:54:43;9.8;40.2
78516;SHT31;67815;51.990;5.688;2023-03-14T15:57:13;9.8;40.8
78516;SHT31;67815;51.990;5.688;2023-03-14T15:59:43;9.8;39.9
78516;SHT31;67815;51.990;5.688;2023-03-14T16:02:14;9.8;40.5
78516;SHT31;67815;51.990;5.688;2023-03-14T16:04:44;9.8;40.7
78516;SHT31;67815;51.990;5.688;2023-03-14T16:07:13;9.8;41.1
78516;SHT31;67815;51.990;5.688;2023-03-14T16:09:43;9.8;40.8
78516;SHT31;67815;51.990;5.688;2023-03-14T16:12:12;9.8;40.7
78516;SHT31;67815;51.990;5.688;2023-03-14T16:14:42;9.7;40.8
78516;SHT31;67815;51.990;5.688;2023-03-14T16:17:12;9.7;41.6
78516;SHT31;67815;51.990;5.688;2023-03-14T16:19:42;9.7;42.1
78516;SHT31;67815;51.990;5.688;2023-03-14T16:22:12;9.7;42.1
78516;SHT31;67815;51.990;5.688;2023-03-14T16:24:41;9.7;41.6
78516;SHT31;67815;51.990;5.688;2023-03-14T16:27:13;9.7;42.0
78516;SHT31;67815;51.990;5.688;2023-03-14T16:29:43;9.7;41.3
78516;SHT31;67815;51.990;5.688;2023-03-14T16:32:15;9.7;40.3
78516;SHT31;67815;51.990;5.688;2023-03-14T16:34:46;9.7;40.3
78516;SHT31;67815;51.990;5.688;2023-03-14T16:37:15;9.6;40.3
78516;SHT31;67815;51.990;5.688;2023-03-14T16:39:48;9.6;41.7
78516;SHT31;67815;51.990;5.688;2023-03-14T16:42:18;9.6;41.3
78516;SHT31;67815;51.990;5.688;2023-03-14T16:44:48;9.6;39.8